Time;durP1;ratioP1;P1;durP2;ratioP2;P2;SDS_P1;SDS_P2;PMS_P1;PMS_P2;Temp;Humidity;BMP_temperature;BMP_pressure;BME280_temperature;BME280_humidity;BME280_pressure;Samples;Min_cycle;Max_cycle;Signal;HPM_P1;HPM_P2
2022/10/22 00:02:06;;;;;;;24.25;10.40;;;;;;;4.59;98.86;97948.75;5026072;28;20136;-57
2022/10/22 00:04:33;;;;;;;18.08;10.60;;;;;;;4.45;98.73;97928.78;5025879;28;20559;-58
2022/10/22 00:07:01;;;;;;;20.15;10.75;;;;;;;4.61;98.68;97946.50;5025935;28;20053;-58
2022/10/22 00:09:27;;;;;;;18.35;9.45;;;;;;;4.73;98.19;97947.91;5025979;28;20069;-57
2022/10/22 00:11:54;;;;;;;17.63;9.10;;;;;;;4.83;97.00;97942.97;5025502;28;20053;-58
2022/10/22 00:14:21;;;;;;;15.88;8.70;;;;;;;4.90;96.22;97939.78;5025659;28;20485;-58
2022/10/22 00:16:47;;;;;;;15.27;9.07;;;;;;;4.88;96.54;97940.09;5039961;28;20593;-58
2022/10/22 00:19:14;;;;;;;21.33;9.90;;;;;;;4.81;97.45;97938.91;5040832;28;20141;-58
2022/10/22 00:21:40;;;;;;;22.13;11.50;;;;;;;4.87;97.37;97937.66;5040731;28;20218;-58
2022/10/22 00:24:07;;;;;;;17.73;9.55;;;;;;;4.50;96.63;97867.50;5025261;28;20111;-57
2022/10/22 00:26:34;;;;;;;22.55;10.27;;;;;;;4.90;97.33;97934.31;5025632;28;20053;-59
2022/10/22 00:29:00;;;;;;;14.95;7.93;;;;;;;4.38;97.33;97848.84;5025600;28;20049;-57
2022/10/22 00:31:27;;;;;;;16.50;9.07;;;;;;;5.02;96.90;97932.63;5025748;28;20081;-57
2022/10/22 00:33:53;;;;;;;18.42;8.25;;;;;;;5.04;97.01;97932.28;5025411;28;20123;-57
2022/10/22 00:36:21;;;;;;;19.60;9.43;;;;;;;4.68;96.40;97851.97;5025733;28;20136;-60
2022/10/22 00:38:48;;;;;;;16.13;8.63;;;;;;;5.03;96.33;97931.47;5040596;28;20084;-61
2022/10/22 00:41:14;;;;;;;12.10;7.20;;;;;;;4.65;96.18;97867.09;5025060;28;20132;-60
2022/10/22 00:44:00;;;;;;;14.70;7.63;;;;;;;4.87;95.10;97899.25;5025165;28;20092;-60
2022/10/22 00:46:27;;;;;;;12.43;6.95;;;;;;;4.80;95.26;97888.69;5004157;28;20525;-60
2022/10/22 00:48:57;;;;;;;14.55;7.30;;;;;;;4.30;96.11;97827.66;5005871;28;20125;-59
2022/10/22 00:51:29;;;;;;;11.63;7.57;;;;;;;4.66;95.59;97888.75;5005040;28;20056;-57
2022/10/22 00:54:01;;;;;;;16.85;8.27;;;;;;;4.46;95.52;97867.31;5005840;28;20097;-60
2022/10/22 00:56:28;;;;;;;15.02;8.40;;;;;;;4.58;96.12;97905.94;5005431;28;20077;-60
2022/10/22 00:58:59;;;;;;;18.45;8.50;;;;;;;4.58;96.11;97896.94;5005217;28;20141;-59
2022/10/22 01:01:30;;;;;;;14.73;8.32;;;;;;;4.51;95.68;97886.38;5005285;28;20072;-60
2022/10/22 01:03:57;;;;;;;18.42;8.25;;;;;;;4.50;96.13;97895.72;5005090;28;20544;-60
2022/10/22 01:06:30;;;;;;;16.23;8.65;;;;;;;3.95;96.29;97812.03;5005092;28;20145;-59
2022/10/22 01:09:15;;;;;;;19.20;9.73;;;;;;;4.42;95.57;97898.41;5005110;28;20148;-57
2022/10/22 01:12:15;;;;;;;19.67;10.60;;;;;;;4.42;95.16;97893.75;5003678;28;20153;-60
2022/10/22 01:15:13;;;;;;;21.38;10.30;;;;;;;4.29;96.33;97900.06;5020007;28;20085;-58
2022/10/22 01:18:12;;;;;;;18.90;9.57;;;;;;;4.03;98.68;97846.91;5009877;28;20540;-57
2022/10/22 01:20:51;;;;;;;18.23;9.10;;;;;;;4.24;99.13;97869.19;5017331;28;20077;-59
2022/10/22 01:23:30;;;;;;;17.80;8.32;;;;;;;4.40;98.27;97879.53;5003742;28;20128;-58
2022/10/22 01:26:20;;;;;;;20.27;8.52;;;;;;;3.73;97.51;97754.44;5005102;28;20088;-60
2022/10/22 01:29:01;;;;;;;14.40;7.90;;;;;;;4.60;96.16;97879.03;5003798;28;20527;-57
2022/10/22 01:31:35;;;;;;;14.05;7.80;;;;;;;3.91;95.95;97778.16;5004664;28;20133;-61
2022/10/22 01:34:03;;;;;;;14.40;8.25;;;;;;;4.35;96.87;97865.09;5004902;28;20100;-58
2022/10/22 01:36:31;;;;;;;13.25;8.13;;;;;;;4.55;97.14;97870.91;5004782;28;20085;-58
2022/10/22 01:39:00;;;;;;;15.02;6.95;;;;;;;4.37;97.27;97828.03;5005052;28;20145;-59
2022/10/22 01:41:28;;;;;;;13.25;7.88;;;;;;;4.31;96.51;97815.56;5004688;28;20068;-58
2022/10/22 01:43:55;;;;;;;15.75;7.60;;;;;;;4.68;97.65;97859.06;5004733;28;20085;-58
2022/10/22 01:46:24;;;;;;;11.20;7.03;;;;;;;4.68;97.27;97862.94;5004754;28;20089;-59
2022/10/22 01:48:58;;;;;;;16.55;6.88;;;;;;;4.79;97.09;97872.56;5005162;28;20141;-58
2022/10/22 01:51:50;;;;;;;9.88;6.40;;;;;;;4.85;96.39;97866.63;5004918;28;20112;-57
2022/10/22 01:54:24;;;;;;;12.77;7.25;;;;;;;2.05;95.88;97425.03;5004818;28;20081;-58
2022/10/22 01:57:06;;;;;;;12.35;6.88;;;;;;;4.73;96.82;97865.56;5004897;28;20045;-59
2022/10/22 01:59:56;;;;;;;11.93;6.78;;;;;;;4.74;96.99;97867.19;5004939;28;20504;-57
2022/10/22 02:02:27;;;;;;;12.15;7.03;;;;;;;4.58;96.58;97940.81;5004853;28;20092;-57
2022/10/22 02:05:03;;;;;;;13.10;6.90;;;;;;;4.60;96.22;97865.31;5004587;28;20062;-57
2022/10/22 02:07:34;;;;;;;14.65;7.13;;;;;;;4.57;96.82;97852.22;5003141;28;20085;-61
2022/10/22 02:10:02;;;;;;;10.43;6.85;;;;;;;4.18;97.85;97804.63;5004447;28;20053;-57
2022/10/22 02:12:31;;;;;;;13.27;7.72;;;;;;;4.14;99.17;97804.44;5004254;28;20078;-58
2022/10/22 02:15:00;;;;;;;13.75;7.43;;;;;;;4.48;99.10;97845.88;5004407;28;20136;-57
2022/10/22 02:17:29;;;;;;;13.82;6.82;;;;;;;4.61;97.57;97869.69;5004266;28;20049;-60
2022/10/22 02:20:00;;;;;;;11.20;6.85;;;;;;;4.11;96.87;97788.63;5004527;28;20492;-60
2022/10/22 02:22:27;;;;;;;15.40;6.82;;;;;;;4.11;97.37;97805.06;5004093;28;20453;-58
2022/10/22 02:24:55;;;;;;;13.02;6.70;;;;;;;4.63;96.90;97867.41;5004591;28;20505;-57
2022/10/22 02:27:44;;;;;;;14.45;6.68;;;;;;;4.57;97.39;97856.88;5004602;28;20176;-58
2022/10/22 02:30:14;;;;;;;11.10;6.45;;;;;;;4.38;98.25;97843.34;5004454;28;20053;-61
2022/10/22 02:32:54;;;;;;;13.43;6.30;;;;;;;4.52;97.47;97871.53;5018915;28;20541;-59
2022/10/22 02:35:23;;;;;;;12.60;7.60;;;;;;;4.42;98.03;97868.25;5004240;28;20583;-60
2022/10/22 02:37:52;;;;;;;16.77;8.77;;;;;;;3.85;97.18;97790.34;5004373;28;20104;-60
2022/10/22 02:40:19;;;;;;;14.45;7.63;;;;;;;4.42;95.60;97866.31;5006448;28;20152;-59
2022/10/22 02:42:48;;;;;;;12.35;7.85;;;;;;;4.38;96.15;97865.28;5022672;28;20133;-57
2022/10/22 02:45:16;;;;;;;16.52;8.13;;;;;;;3.96;96.26;97810.91;5017827;28;20133;-58
2022/10/22 02:47:43;;;;;;;15.55;7.63;;;;;;;2.69;96.28;97599.66;5026969;28;20080;-61
2022/10/22 02:50:09;;;;;;;15.23;8.23;;;;;;;4.30;96.04;97863.28;5027463;28;20049;-58
2022/10/22 02:52:36;;;;;;;18.58;8.93;;;;;;;4.25;95.24;97866.16;5027439;28;20104;-59
2022/10/22 02:55:05;;;;;;;18.45;8.55;;;;;;;4.23;96.07;97873.91;5026281;28;20602;-59
2022/10/22 02:57:32;;;;;;;13.00;7.55;;;;;;;4.23;96.41;97868.41;5027095;28;20065;-60
2022/10/22 02:59:58;;;;;;;14.35;7.47;;;;;;;3.94;95.96;97809.59;5025990;28;20080;-60
2022/10/22 03:02:25;;;;;;;14.80;7.90;;;;;;;3.71;95.10;97788.75;5027019;28;20147;-60
2022/10/22 03:04:51;;;;;;;14.32;8.05;;;;;;;4.26;96.39;97856.81;5027197;28;20567;-60
2022/10/22 03:07:18;;;;;;;15.35;8.88;;;;;;;4.21;97.02;97867.91;5027218;28;20097;-61
2022/10/22 03:09:45;;;;;;;15.05;7.63;;;;;;;3.40;97.54;97741.25;5027371;28;20508;-61
2022/10/22 03:12:11;;;;;;;14.20;7.47;;;;;;;4.15;99.04;97860.91;5027285;28;20583;-57
2022/10/22 03:14:38;;;;;;;12.95;6.95;;;;;;;4.11;99.20;97837.19;5025667;28;20072;-58
2022/10/22 03:17:05;;;;;;;15.88;8.20;;;;;;;4.22;99.90;97855.81;5026890;28;20156;-58
2022/10/22 03:19:31;;;;;;;16.48;8.82;;;;;;;4.19;100.00;97863.81;5027030;28;20073;-59
2022/10/22 03:22:02;;;;;;;17.38;8.80;;;;;;;4.31;99.84;97862.19;5026959;28;20132;-57
2022/10/22 03:24:38;;;;;;;16.40;9.90;;;;;;;4.33;98.95;97873.63;5025568;28;20140;-61
2022/10/22 03:27:05;;;;;;;16.35;9.75;;;;;;;4.33;98.64;97873.63;5026923;28;20088;-59
2022/10/22 03:29:36;;;;;;;14.80;9.15;;;;;;;4.36;98.49;97866.75;5026915;28;20059;-57
2022/10/22 03:32:03;;;;;;;16.83;8.70;;;;;;;3.81;98.21;97777.56;5026406;28;20115;-60
2022/10/22 03:34:29;;;;;;;12.82;7.60;;;;;;;4.48;97.02;97862.31;5026553;28;20045;-60
2022/10/22 03:36:58;;;;;;;15.15;7.65;;;;;;;4.58;96.21;97864.78;5025003;28;20136;-60
2022/10/22 03:39:28;;;;;;;13.18;7.80;;;;;;;4.35;95.49;97821.22;5024861;28;20586;-60
2022/10/22 03:41:55;;;;;;;16.90;7.32;;;;;;;4.28;95.61;97821.66;5026533;28;20084;-59
2022/10/22 03:44:22;;;;;;;15.02;7.75;;;;;;;4.16;96.02;97802.22;5026210;28;20144;-60
2022/10/22 03:46:49;;;;;;;13.32;7.00;;;;;;;4.14;96.21;97800.91;5026443;28;20081;-61
2022/10/22 03:49:16;;;;;;;14.82;7.60;;;;;;;4.45;96.31;97848.41;5026418;28;20741;-60
2022/10/22 03:51:43;;;;;;;20.20;8.27;;;;;;;4.41;96.60;97848.22;5024769;28;20057;-58
2022/10/22 03:54:09;;;;;;;14.52;8.80;;;;;;;4.03;96.61;97803.06;5026423;28;20503;-58
2022/10/22 03:56:36;;;;;;;19.63;9.35;;;;;;;3.92;95.51;97768.78;5026328;28;20081;-58
2022/10/22 03:59:03;;;;;;;24.00;10.52;;;;;;;4.36;94.94;97839.31;5031162;28;20524;-61
2022/10/22 04:01:30;;;;;;;18.60;9.43;;;;;;;4.37;95.31;97839.00;5025973;28;20136;-61
2022/10/22 04:03:57;;;;;;;15.77;9.10;;;;;;;4.32;95.84;97841.03;5026100;28;20050;-57
2022/10/22 04:06:24;;;;;;;18.10;9.45;;;;;;;4.35;95.05;97851.38;5024473;28;20119;-60
2022/10/22 04:08:51;;;;;;;21.92;10.85;;;;;;;4.36;94.72;97855.78;5026504;28;20080;-60
2022/10/22 04:11:18;;;;;;;25.02;12.50;;;;;;;4.20;92.80;97847.09;5025977;28;20045;-60
2022/10/22 04:13:44;;;;;;;22.70;12.50;;;;;;;3.76;92.96;97792.19;5026029;28;20049;-60
2022/10/22 04:16:17;;;;;;;29.23;13.23;;;;;;;4.12;92.75;97858.78;5025864;28;20092;-59
2022/10/22 04:18:45;;;;;;;23.55;13.65;;;;;;;3.96;93.15;97819.13;5025702;28;20479;-58
2022/10/22 04:21:13;;;;;;;27.02;13.55;;;;;;;3.96;94.04;97823.81;5024234;28;20052;-59
2022/10/22 04:23:50;;;;;;;26.95;14.10;;;;;;;4.10;95.23;97836.34;5040754;28;20092;-61
2022/10/22 04:26:18;;;;;;;29.55;15.05;;;;;;;4.18;95.93;97848.50;5025419;28;20164;-58
2022/10/22 04:28:46;;;;;;;29.92;14.70;;;;;;;3.46;95.49;97721.66;5025493;28;20077;-59
2022/10/22 04:31:16;;;;;;;21.10;11.70;;;;;;;4.24;96.63;97837.13;5025279;28;20082;-60
2022/10/22 04:33:43;;;;;;;23.55;11.63;;;;;;;4.31;96.27;97930.75;5024662;28;20595;-59
2022/10/22 04:36:13;;;;;;;18.08;10.82;;;;;;;3.88;96.07;97761.50;5025428;28;20529;-58
2022/10/22 04:38:40;;;;;;;20.95;10.55;;;;;;;4.19;96.97;97822.69;5025037;28;20049;-61
2022/10/22 04:41:16;;;;;;;26.30;11.82;;;;;;;4.33;96.59;97838.00;5025313;28;20097;-61
2022/10/22 04:43:43;;;;;;;22.20;10.73;;;;;;;3.98;96.03;97800.44;5025068;28;20085;-58
2022/10/22 04:46:10;;;;;;;31.60;11.45;;;;;;;3.87;95.92;97803.75;5024675;28;20088;-60
2022/10/22 04:48:39;;;;;;;34.88;11.43;;;;;;;4.29;94.74;97839.75;5024767;28;20619;-58
2022/10/22 04:51:07;;;;;;;23.90;10.88;;;;;;;4.31;93.58;97823.78;5025046;28;20128;-58
2022/10/22 04:53:35;;;;;;;38.58;11.63;;;;;;;4.05;94.42;97822.75;5024980;28;20054;-57
2022/10/22 04:56:19;;;;;;;31.02;12.85;;;;;;;1.36;93.66;97385.25;5024898;28;20165;-60
2022/10/22 04:58:57;;;;;;;27.23;11.85;;;;;;;4.03;94.66;97819.50;5024860;28;20457;-60
2022/10/22 05:01:29;;;;;;;32.10;14.00;;;;;;;4.10;93.77;97824.56;5024097;28;20081;-58
2022/10/22 05:03:58;;;;;;;34.78;13.70;;;;;;;4.16;93.96;97824.16;5025197;28;20131;-57
2022/10/22 05:06:27;;;;;;;37.78;16.90;;;;;;;4.17;93.74;97835.94;5024872;28;21199;-58
2022/10/22 05:08:56;;;;;;;34.35;15.50;;;;;;;4.32;92.37;97833.63;5024669;28;20570;-58
2022/10/22 05:11:29;;;;;;;35.88;16.33;;;;;;;4.25;92.47;97822.28;5024555;28;20099;-60
2022/10/22 05:13:57;;;;;;;29.75;15.88;;;;;;;4.47;91.59;97836.00;5024886;28;20061;-60
2022/10/22 05:16:24;;;;;;;32.65;14.18;;;;;;;4.55;90.95;97838.00;5039703;28;20064;-58
2022/10/22 05:18:50;;;;;;;25.20;13.15;;;;;;;4.25;89.96;97789.38;5024823;28;20438;-59
2022/10/22 05:21:19;;;;;;;26.67;13.82;;;;;;;4.64;89.95;97833.41;5024979;28;20072;-57
2022/10/22 05:23:48;;;;;;;32.22;14.55;;;;;;;4.75;91.15;97830.38;5023099;28;20136;-58
2022/10/22 05:26:17;;;;;;;30.05;14.88;;;;;;;4.84;91.76;97825.78;5024633;28;20538;-61
2022/10/22 05:28:45;;;;;;;32.60;14.70;;;;;;;4.86;92.04;97799.63;5024668;28;20128;-60
2022/10/22 05:31:12;;;;;;;28.73;14.00;;;;;;;5.19;92.10;97833.84;5022263;28;20061;-58
2022/10/22 05:33:40;;;;;;;38.63;14.60;;;;;;;5.39;92.21;97832.50;5024385;28;20166;-58
2022/10/22 05:36:09;;;;;;;39.45;15.40;;;;;;;5.45;92.20;97823.78;5024274;28;20136;-60
2022/10/22 05:38:36;;;;;;;41.63;18.17;;;;;;;5.62;92.03;97820.28;5022929;28;20133;-60
2022/10/22 05:41:11;;;;;;;33.95;17.50;;;;;;;5.77;91.33;97831.63;5024262;28;20164;-59
2022/10/22 05:43:38;;;;;;;42.72;20.90;;;;;;;5.45;91.72;97785.31;5024023;28;20158;-59
2022/10/22 05:46:07;;;;;;;34.88;18.08;;;;;;;6.02;91.62;97832.84;5022568;28;20672;-57
2022/10/22 05:48:34;;;;;;;38.22;16.05;;;;;;;6.23;91.73;97828.31;5024459;28;20133;-59
2022/10/22 05:51:12;;;;;;;32.25;13.60;;;;;;;6.48;91.18;97819.25;5024031;28;20097;-60
2022/10/22 05:53:41;;;;;;;28.88;11.10;;;;;;;6.81;89.50;97839.59;5024527;28;20456;-61
2022/10/22 05:56:11;;;;;;;17.92;9.70;;;;;;;6.63;87.96;97788.47;5022697;28;20068;-60
2022/10/22 05:58:38;;;;;;;78.03;27.63;;;;;;;7.01;88.17;97816.91;5023758;28;20151;-57
2022/10/22 06:01:27;;;;;;;139.52;52.38;;;;;;;7.19;87.02;97829.47;5024289;28;20081;-57
2022/10/22 06:03:58;;;;;;;123.50;47.83;;;;;;;7.46;86.26;97826.28;5023686;28;20085;-61
2022/10/22 06:06:33;;;;;;;117.88;46.13;;;;;;;7.81;84.57;97828.88;5024519;28;20152;-61
2022/10/22 06:09:13;;;;;;;31.02;16.27;;;;;;;7.98;83.47;97820.50;5023257;28;20135;-60
2022/10/22 06:11:40;;;;;;;18.60;10.23;;;;;;;8.06;82.68;97809.38;5024207;28;20168;-59
2022/10/22 06:14:08;;;;;;;16.30;8.68;;;;;;;8.25;82.56;97817.25;5026876;28;20143;-60
2022/10/22 06:16:35;;;;;;;15.00;9.27;;;;;;;8.23;82.60;97827.81;5026802;28;20053;-60
2022/10/22 06:19:02;;;;;;;14.60;8.90;;;;;;;8.41;82.14;97832.06;5028330;28;20136;-59
2022/10/22 06:21:30;;;;;;;16.77;9.77;;;;;;;8.57;82.31;97830.28;5027313;28;20085;-60
2022/10/22 06:23:58;;;;;;;28.70;14.60;;;;;;;8.79;80.25;97807.81;5028092;28;20156;-60
2022/10/22 06:26:25;;;;;;;30.45;14.77;;;;;;;8.71;80.19;97764.56;5027252;28;20111;-60
2022/10/22 06:28:51;;;;;;;26.38;13.77;;;;;;;9.35;79.38;97822.81;5027623;28;20111;-58
2022/10/22 06:31:18;;;;;;;20.13;10.00;;;;;;;9.66;78.46;97829.44;5027608;28;20049;-59
2022/10/22 06:33:45;;;;;;;19.25;11.23;;;;;;;9.89;77.61;97832.56;5026991;28;20057;-58
2022/10/22 06:36:14;;;;;;;17.00;10.00;;;;;;;10.03;75.94;97833.81;5027529;28;20140;-56
2022/10/22 06:38:41;;;;;;;16.42;8.88;;;;;;;10.21;75.19;97835.19;5027435;28;20583;-55
2022/10/22 06:41:11;;;;;;;21.77;9.60;;;;;;;10.49;74.90;97841.63;5027843;28;20156;-58
2022/10/22 06:43:38;;;;;;;23.52;11.25;;;;;;;8.60;72.28;97487.22;5026136;28;20108;-59
2022/10/22 06:46:08;;;;;;;18.23;10.75;;;;;;;11.02;72.20;97832.03;5027354;28;20135;-59
2022/10/22 06:48:36;;;;;;;20.48;9.88;;;;;;;11.37;70.46;97833.00;5027788;28;20111;-56
2022/10/22 06:51:06;;;;;;;21.38;10.50;;;;;;;11.58;70.48;97821.66;5027254;28;20077;-57
2022/10/22 06:53:33;;;;;;;18.65;9.10;;;;;;;12.27;69.08;97821.78;5027917;28;20132;-56
2022/10/22 06:56:12;;;;;;;21.30;11.07;;;;;;;12.44;66.75;97815.81;5027497;28;20085;-57
2022/10/22 06:58:38;;;;;;;15.48;9.32;;;;;;;12.47;65.58;97765.06;5027098;28;20235;-57
2022/10/22 07:01:11;;;;;;;14.32;9.63;;;;;;;12.96;65.17;97816.13;5027164;28;20128;-59
2022/10/22 07:03:39;;;;;;;16.55;7.88;;;;;;;13.27;63.75;97809.63;5027305;28;20057;-56
2022/10/22 07:06:09;;;;;;;23.73;9.60;;;;;;;12.88;63.52;97714.28;5025681;28;20103;-57
2022/10/22 07:08:37;;;;;;;17.75;10.30;;;;;;;13.61;63.39;97798.31;5026873;28;20150;-59
2022/10/22 07:11:09;;;;;;;17.67;9.88;;;;;;;13.29;62.19;97757.97;5027156;28;20053;-57
2022/10/22 07:13:36;;;;;;;19.60;10.38;;;;;;;13.51;63.24;97804.50;5027050;28;20136;-57
2022/10/22 07:16:04;;;;;;;20.85;9.50;;;;;;;13.65;61.79;97799.19;5026938;28;20053;-59
2022/10/22 07:18:32;;;;;;;14.80;9.43;;;;;;;13.51;62.24;97801.69;5026745;28;20152;-58
2022/10/22 07:20:59;;;;;;;18.20;10.75;;;;;;;13.52;62.28;97805.31;5026902;28;20496;-59
2022/10/22 07:23:26;;;;;;;16.85;8.80;;;;;;;13.66;61.66;97811.09;5026685;28;20049;-57
2022/10/22 07:25:53;;;;;;;17.63;9.77;;;;;;;13.63;61.85;97804.31;5026060;28;20096;-57
2022/10/22 07:28:26;;;;;;;22.38;10.43;;;;;;;13.75;61.46;97796.94;5025434;28;20136;-58
2022/10/22 07:30:53;;;;;;;25.50;11.05;;;;;;;13.55;61.96;97783.09;5026703;28;20054;-57
2022/10/22 07:33:20;;;;;;;19.17;10.10;;;;;;;12.76;65.75;97794.25;5026257;28;20520;-60
2022/10/22 07:35:46;;;;;;;17.08;9.90;;;;;;;12.69;65.32;97744.91;5026678;28;20091;-60
2022/10/22 07:38:13;;;;;;;19.90;10.02;;;;;;;13.34;64.60;97785.50;5026454;28;20512;-59
2022/10/22 07:40:39;;;;;;;16.55;9.80;;;;;;;13.96;62.15;97791.72;5024998;28;20471;-60
2022/10/22 07:43:06;;;;;;;16.65;10.02;;;;;;;14.01;61.56;97716.19;5026548;28;20093;-60
2022/10/22 07:45:33;;;;;;;14.55;8.95;;;;;;;14.56;58.60;97771.13;5026272;28;20596;-60
2022/10/22 07:48:00;;;;;;;17.83;9.50;;;;;;;14.69;58.12;97789.22;5026076;28;20046;-59
2022/10/22 07:50:27;;;;;;;16.05;9.38;;;;;;;14.71;58.13;97784.06;5026364;28;20128;-60
2022/10/22 07:52:54;;;;;;;16.13;9.38;;;;;;;15.12;58.12;97774.59;5026242;28;20136;-60
2022/10/22 07:55:23;;;;;;;22.42;9.52;;;;;;;15.48;56.81;97767.41;5025832;28;20142;-60
2022/10/22 07:57:50;;;;;;;15.77;9.48;;;;;;;15.58;55.48;97756.34;5024550;28;20053;-60
2022/10/22 08:00:17;;;;;;;14.88;8.90;;;;;;;15.87;54.37;97774.94;5025845;28;20639;-60
2022/10/22 08:02:50;;;;;;;14.67;8.70;;;;;;;16.00;53.58;97762.28;5025716;28;20045;-59
2022/10/22 08:05:16;;;;;;;14.52;7.82;;;;;;;16.21;52.41;97768.03;5025929;28;20100;-59
2022/10/22 08:07:43;;;;;;;12.13;7.65;;;;;;;16.36;51.54;97769.69;5025779;28;20088;-59
2022/10/22 08:10:11;;;;;;;12.75;7.53;;;;;;;16.43;51.04;97764.16;5025630;28;20133;-59
2022/10/22 08:12:40;;;;;;;16.35;7.70;;;;;;;16.30;51.25;97765.69;5025884;28;20088;-60
2022/10/22 08:15:07;;;;;;;13.15;8.13;;;;;;;16.23;51.82;97773.22;5024816;28;20064;-60
2022/10/22 08:17:34;;;;;;;11.68;7.28;;;;;;;16.37;52.03;97773.31;5025850;28;20140;-62
2022/10/22 08:20:01;;;;;;;13.20;7.97;;;;;;;16.63;51.21;97762.69;5024393;28;20049;-59
2022/10/22 08:22:28;;;;;;;11.98;8.00;;;;;;;16.77;50.91;97766.75;5025404;28;20516;-61
2022/10/22 08:24:54;;;;;;;12.70;6.78;;;;;;;16.66;50.47;97766.69;5024417;28;20153;-60
2022/10/22 08:27:21;;;;;;;11.32;6.75;;;;;;;16.28;50.41;97723.31;5025631;28;20136;-60
2022/10/22 08:29:48;;;;;;;10.02;7.50;;;;;;;16.63;50.97;97762.69;5025916;28;20132;-58
2022/10/22 08:32:14;;;;;;;9.32;6.50;;;;;;;16.81;50.43;97761.97;5025230;28;20058;-58
2022/10/22 08:34:41;;;;;;;10.73;6.90;;;;;;;16.60;51.14;97740.28;5025175;28;20045;-59
2022/10/22 08:37:09;;;;;;;11.20;6.65;;;;;;;16.30;51.15;97760.09;5024456;28;20133;-59
2022/10/22 08:39:35;;;;;;;19.10;6.75;;;;;;;16.49;51.37;97750.63;5025574;28;20133;-60
2022/10/22 08:42:24;;;;;;;9.77;6.78;;;;;;;16.72;51.13;97753.94;5025388;28;20135;-58
2022/10/22 08:45:00;;;;;;;9.07;6.30;;;;;;;17.08;49.85;97752.88;5025294;28;20057;-58
2022/10/22 08:47:53;;;;;;;9.13;6.50;;;;;;;17.08;50.40;97766.06;5024720;28;20144;-57
2022/10/22 08:50:32;;;;;;;9.97;6.13;;;;;;;17.22;49.96;97766.09;5023723;28;20057;-57
2022/10/22 08:53:04;;;;;;;12.65;6.70;;;;;;;17.22;50.05;97754.91;5025028;28;20079;-59
2022/10/22 08:55:32;;;;;;;14.82;6.90;;;;;;;16.92;49.76;97695.63;5024939;28;20084;-58
2022/10/22 08:58:02;;;;;;;13.10;7.18;;;;;;;17.13;50.04;97751.69;5024557;28;20057;-60
2022/10/22 09:00:44;;;;;;;9.70;6.60;;;;;;;17.29;50.26;97754.94;5025010;28;20103;-59
2022/10/22 09:03:47;;;;;;;10.43;7.63;;;;;;;17.33;50.03;97747.31;5024972;28;20076;-62
2022/10/22 09:06:25;;;;;;;13.50;7.13;;;;;;;16.18;52.31;97748.44;5023338;28;20610;-59
2022/10/22 09:08:53;;;;;;;13.18;6.57;;;;;;;16.34;52.57;97758.09;5024606;28;20057;-59
2022/10/22 09:11:34;;;;;;;11.85;7.40;;;;;;;16.66;51.95;97705.13;5024457;28;20069;-59
2022/10/22 09:14:01;;;;;;;10.25;7.03;;;;;;;17.08;50.49;97732.47;5023213;28;20141;-61
2022/10/22 09:16:46;;;;;;;10.68;7.22;;;;;;;17.29;50.51;97693.31;5023006;28;20053;-60
2022/10/22 09:19:34;;;;;;;8.35;6.40;;;;;;;18.01;49.22;97735.78;5024860;28;20088;-59
2022/10/22 09:22:27;;;;;;;10.07;6.82;;;;;;;18.34;48.44;97726.91;5024711;28;20054;-60
2022/10/22 09:25:16;;;;;;;16.55;7.15;;;;;;;18.15;48.65;97735.75;5024543;28;20061;-61
2022/10/22 09:27:42;;;;;;;12.02;6.50;;;;;;;18.32;47.85;97734.91;5024472;28;20151;-56
2022/10/22 09:30:32;;;;;;;10.68;6.88;;;;;;;18.33;47.78;97725.31;5024869;28;20061;-56
2022/10/22 09:33:01;;;;;;;14.68;8.07;;;;;;;18.47;47.47;97722.50;5024141;28;20123;-57
2022/10/22 09:35:31;;;;;;;9.02;7.07;;;;;;;18.27;47.46;97676.44;5024412;28;20525;-55
2022/10/22 09:38:06;;;;;;;11.77;7.60;;;;;;;17.21;48.81;97602.09;5024780;28;20158;-56
2022/10/22 09:40:45;;;;;;;17.30;7.47;;;;;;;18.02;48.68;97714.94;5024252;28;20111;-57
2022/10/22 09:43:13;;;;;;;16.38;6.85;;;;;;;18.33;48.35;97707.66;5023270;28;20136;-59
2022/10/22 09:45:41;;;;;;;9.27;6.93;;;;;;;18.81;47.50;97698.28;5024431;28;20119;-59
2022/10/22 09:48:25;;;;;;;14.52;6.07;;;;;;;18.87;46.34;97648.97;5027000;28;20124;-59
2022/10/22 09:50:58;;;;;;;;;;;;;;;19.40;45.53;97693.56;5029010;28;20064;-61
2022/10/22 09:53:28;;;;;;;14.05;6.53;;;;;;;19.27;46.05;97684.78;5029095;28;19925;-59
2022/10/22 09:56:00;;;;;;;19.35;11.68;;;;;;;18.96;46.40;97690.59;5026526;28;20060;-58
2022/10/22 09:58:27;;;;;;;16.80;10.63;;;;;;;18.87;47.33;97681.84;5028486;28;20107;-58
2022/10/22 10:00:57;;;;;;;20.17;10.55;;;;;;;18.89;46.94;97679.44;5027968;28;20049;-58
2022/10/22 10:03:27;;;;;;;18.52;10.88;;;;;;;16.26;46.61;97244.88;5028164;28;20089;-59
2022/10/22 10:05:57;;;;;;;21.60;11.00;;;;;;;19.09;46.37;97666.47;5027618;28;20061;-58
2022/10/22 10:08:30;;;;;;;54.88;28.15;;;;;;;19.08;46.46;97670.47;5026871;28;20111;-58
2022/10/22 10:11:56;;;;;;;54.28;28.85;;;;;;;19.22;46.33;97659.94;5027631;28;20759;-59
2022/10/22 10:14:30;;;;;;;72.50;36.45;;;;;;;19.20;46.19;97656.75;4956344;28;20054;-59
2022/10/22 10:17:02;;;;;;;47.88;26.15;;;;;;;19.41;45.91;97650.22;5021658;28;20442;-61
2022/10/22 10:19:56;;;;;;;49.65;24.88;;;;;;;19.50;45.28;97659.78;5028401;28;20136;-59
2022/10/22 10:22:32;;;;;;;49.15;25.63;;;;;;;19.46;45.49;97652.56;5028192;28;20447;-58
2022/10/22 10:25:22;;;;;;;42.15;20.95;;;;;;;18.72;46.55;97647.41;5027414;28;20088;-60
2022/10/22 10:28:14;;;;;;;29.65;16.08;;;;;;;18.66;47.10;97637.84;5027874;28;20097;-60
2022/10/22 10:31:30;;;;;;;38.15;19.95;;;;;;;18.43;47.59;97631.13;5026334;28;20485;-59
2022/10/22 10:34:11;;;;;;;29.55;18.50;;;;;;;18.79;46.63;97635.34;5024741;28;20115;-59
2022/10/22 10:37:04;;;;;;;30.85;16.30;;;;;;;18.97;46.29;97617.19;5025933;28;20140;-59
2022/10/22 10:39:31;;;;;;;26.88;13.63;;;;;;;18.74;46.83;97616.13;5011622;28;20133;-60
2022/10/22 10:42:16;;;;;;;22.05;12.57;;;;;;;19.08;46.00;97615.09;5027866;28;20111;-57
2022/10/22 10:45:01;;;;;;;30.75;14.70;;;;;;;19.02;46.20;97611.13;5027530;28;20081;-57
2022/10/22 10:47:40;;;;;;;28.73;15.45;;;;;;;19.27;45.92;97608.13;5025867;28;20119;-60
2022/10/22 10:50:16;;;;;;;31.50;15.80;;;;;;;19.22;46.35;97603.75;5027169;28;20057;-61
2022/10/22 10:52:51;;;;;;;37.72;20.45;;;;;;;19.18;45.84;97585.34;5027302;28;20207;-59
2022/10/22 10:55:27;;;;;;;33.40;17.63;;;;;;;19.23;45.91;97594.13;5026048;28;20097;-60
2022/10/22 10:58:12;;;;;;;30.42;17.27;;;;;;;19.61;45.63;97586.59;5026057;28;20147;-61
2022/10/22 11:00:52;;;;;;;36.10;18.48;;;;;;;20.09;44.15;97589.31;5025958;28;20119;-60
2022/10/22 11:03:45;;;;;;;34.88;16.83;;;;;;;20.05;44.50;97578.09;5027388;28;20511;-59
2022/10/22 11:06:16;;;;;;;29.03;17.87;;;;;;;19.31;44.71;97505.81;5026848;28;20057;-59
2022/10/22 11:09:26;;;;;;;36.88;17.35;;;;;;;19.88;44.56;97573.47;5025906;28;20108;-59
2022/10/22 11:12:01;;;;;;;30.98;16.17;;;;;;;19.91;43.89;97577.44;5026613;28;20085;-57
2022/10/22 11:14:38;;;;;;;30.08;16.85;;;;;;;20.39;42.76;97486.00;5027096;28;20140;-60
2022/10/22 11:17:17;;;;;;;34.13;17.13;;;;;;;21.39;42.17;97582.66;5025248;28;20058;-60
2022/10/22 11:19:59;;;;;;;35.78;18.00;;;;;;;21.88;40.95;97566.88;5025555;28;20073;-60
2022/10/22 11:22:38;;;;;;;22.70;14.70;;;;;;;20.41;42.36;97544.69;5026647;28;20064;-60
2022/10/22 11:25:23;;;;;;;27.08;15.77;;;;;;;17.90;44.26;97359.38;5026794;28;20050;-60
2022/10/22 11:28:00;;;;;;;37.08;18.02;;;;;;;20.01;44.78;97548.41;5026504;28;20088;-60
2022/10/22 11:30:39;;;;;;;27.73;16.33;;;;;;;20.59;42.91;97551.69;5026261;28;20087;-59
2022/10/22 11:33:11;;;;;;;27.48;15.25;;;;;;;20.57;42.40;97525.16;5025247;28;20080;-60
2022/10/22 11:35:41;;;;;;;23.27;15.27;;;;;;;20.82;42.76;97548.13;5024828;28;20095;-59
2022/10/22 11:38:13;;;;;;;25.20;14.32;;;;;;;20.72;41.62;97476.66;5025505;28;20136;-59
2022/10/22 11:41:08;;;;;;;21.90;14.00;;;;;;;20.73;41.81;97494.34;5026182;28;20580;-57
2022/10/22 11:43:51;;;;;;;21.15;12.93;;;;;;;21.23;41.34;97534.59;5024851;28;20148;-58
2022/10/22 11:46:17;;;;;;;21.97;13.87;;;;;;;21.51;41.40;97528.50;5026215;28;20140;-57
2022/10/22 11:49:02;;;;;;;22.58;12.98;;;;;;;21.13;41.22;97527.13;5024829;28;20057;-60
2022/10/22 11:51:37;;;;;;;24.10;13.45;;;;;;;20.94;41.60;97522.97;5026325;28;20080;-59